Pagrindinis puslapis
METAR-TAF:

METAR-TAF

Oro uostai :

El Palomar, Argentina

platuma: 34-36S, ilguma: 058-36W, Aukštis: 18 m

Dabartinis oras

Ataskaita buvo paskelbta 14 valandos ir 6 minutes, ne 13:31 UTC
Vėjas 12 kt iš Vakarų/Šiaurės Vakarų su gūsio iki 22 kt
Temperatūra 33°C
Drėgmė 32%
Slėgis 1010 hPa
Matomumas 10 km arba daugiau
nėra debesų žemiau 1500 m ir nėra kamuolinių lietaus debesų

METAR: SADP 101331Z 29012G22KT CAVOK 33/14 Q1010

Laikas: 00:37 (03:37 UTC)


TAF: trūkstamas

Orai ataskaitas ir orų prognozės (METAR, TAF).

turimą stotys yra geltonos ir raudonos taškus žemėlapyje.

Perkelti pele per norėdami pamatyti stoties vardą.

Tada spustelėkite, norėdami matyti oro stebėjimo ir prognozės.

Norėdami pakeisti žemėlapį: spustelėkite ant žalios mygtukų su juodo kryžiaus žemyn,; žalią mygtuką su brūkšneliu, jei norite nutolinti; arba žalių rodyklių gretimoms žemėlapius.


METAR-TAF: